sensor_id;sensor_type;location;lat;lon;timestamp;P1;durP1;ratioP1;P2;durP2;ratioP2
12042;SDS011;6082;49.306;12.862;2023-08-30T00:00:19;3.23;;;2.53;;
12042;SDS011;6082;49.306;12.862;2023-08-30T00:02:47;3.40;;;2.80;;
12042;SDS011;6082;49.306;12.862;2023-08-30T00:05:13;5.73;;;3.40;;
12042;SDS011;6082;49.306;12.862;2023-08-30T00:07:39;4.80;;;3.47;;
12042;SDS011;6082;49.306;12.862;2023-08-30T00:10:06;3.67;;;2.90;;
12042;SDS011;6082;49.306;12.862;2023-08-30T00:12:33;5.27;;;3.37;;
12042;SDS011;6082;49.306;12.862;2023-08-30T00:14:58;6.83;;;3.50;;
12042;SDS011;6082;49.306;12.862;2023-08-30T00:17:24;4.17;;;3.13;;
12042;SDS011;6082;49.306;12.862;2023-08-30T00:19:50;4.60;;;3.37;;
12042;SDS011;6082;49.306;12.862;2023-08-30T00:22:18;4.57;;;3.23;;
12042;SDS011;6082;49.306;12.862;2023-08-30T00:24:43;5.60;;;3.63;;
12042;SDS011;6082;49.306;12.862;2023-08-30T00:27:10;4.90;;;3.63;;
12042;SDS011;6082;49.306;12.862;2023-08-30T00:29:37;4.97;;;4.00;;
12042;SDS011;6082;49.306;12.862;2023-08-30T00:32:03;6.30;;;4.37;;
12042;SDS011;6082;49.306;12.862;2023-08-30T00:34:29;7.30;;;4.03;;
12042;SDS011;6082;49.306;12.862;2023-08-30T00:36:54;4.37;;;3.03;;
12042;SDS011;6082;49.306;12.862;2023-08-30T00:39:20;4.53;;;3.50;;
12042;SDS011;6082;49.306;12.862;2023-08-30T00:41:46;4.53;;;3.60;;
12042;SDS011;6082;49.306;12.862;2023-08-30T00:44:12;5.83;;;4.07;;
12042;SDS011;6082;49.306;12.862;2023-08-30T00:46:38;8.33;;;3.93;;
12042;SDS011;6082;49.306;12.862;2023-08-30T00:49:04;4.47;;;3.53;;
12042;SDS011;6082;49.306;12.862;2023-08-30T00:51:30;6.30;;;4.10;;
12042;SDS011;6082;49.306;12.862;2023-08-30T00:53:58;9.37;;;3.70;;
12042;SDS011;6082;49.306;12.862;2023-08-30T00:56:25;8.83;;;4.07;;
12042;SDS011;6082;49.306;12.862;2023-08-30T00:58:52;4.70;;;3.60;;
12042;SDS011;6082;49.306;12.862;2023-08-30T01:01:19;6.30;;;3.67;;
12042;SDS011;6082;49.306;12.862;2023-08-30T01:03:45;5.07;;;3.50;;
12042;SDS011;6082;49.306;12.862;2023-08-30T01:06:11;5.67;;;4.20;;
12042;SDS011;6082;49.306;12.862;2023-08-30T01:08:38;7.30;;;4.00;;
12042;SDS011;6082;49.306;12.862;2023-08-30T01:11:13;6.67;;;3.80;;
12042;SDS011;6082;49.306;12.862;2023-08-30T01:13:43;5.10;;;4.00;;
12042;SDS011;6082;49.306;12.862;2023-08-30T01:16:11;4.90;;;4.20;;
12042;SDS011;6082;49.306;12.862;2023-08-30T01:18:37;8.47;;;4.23;;
12042;SDS011;6082;49.306;12.862;2023-08-30T01:21:06;6.90;;;4.50;;
12042;SDS011;6082;49.306;12.862;2023-08-30T01:26:29;6.00;;;4.50;;
12042;SDS011;6082;49.306;12.862;2023-08-30T01:29:07;6.37;;;4.47;;
12042;SDS011;6082;49.306;12.862;2023-08-30T01:31:36;6.83;;;4.40;;
12042;SDS011;6082;49.306;12.862;2023-08-30T01:34:03;7.00;;;4.90;;
12042;SDS011;6082;49.306;12.862;2023-08-30T01:36:29;6.07;;;4.90;;
12042;SDS011;6082;49.306;12.862;2023-08-30T01:38:57;5.73;;;4.37;;
12042;SDS011;6082;49.306;12.862;2023-08-30T01:41:24;11.47;;;4.87;;
12042;SDS011;6082;49.306;12.862;2023-08-30T01:43:52;6.43;;;4.47;;
12042;SDS011;6082;49.306;12.862;2023-08-30T01:46:18;6.00;;;4.57;;
12042;SDS011;6082;49.306;12.862;2023-08-30T01:48:49;5.63;;;4.43;;
12042;SDS011;6082;49.306;12.862;2023-08-30T01:51:15;7.30;;;5.00;;
12042;SDS011;6082;49.306;12.862;2023-08-30T01:53:42;7.93;;;5.07;;
12042;SDS011;6082;49.306;12.862;2023-08-30T01:56:10;6.37;;;4.50;;
12042;SDS011;6082;49.306;12.862;2023-08-30T01:58:36;6.50;;;4.53;;
12042;SDS011;6082;49.306;12.862;2023-08-30T02:01:01;6.43;;;4.53;;
12042;SDS011;6082;49.306;12.862;2023-08-30T02:03:27;7.60;;;5.27;;
12042;SDS011;6082;49.306;12.862;2023-08-30T02:08:38;6.87;;;4.80;;
12042;SDS011;6082;49.306;12.862;2023-08-30T02:11:26;6.73;;;4.50;;
12042;SDS011;6082;49.306;12.862;2023-08-30T02:13:53;6.63;;;4.73;;
12042;SDS011;6082;49.306;12.862;2023-08-30T02:16:22;7.50;;;5.80;;
12042;SDS011;6082;49.306;12.862;2023-08-30T02:18:49;7.33;;;4.63;;
12042;SDS011;6082;49.306;12.862;2023-08-30T02:21:16;6.93;;;5.00;;
12042;SDS011;6082;49.306;12.862;2023-08-30T02:23:42;8.60;;;4.90;;
12042;SDS011;6082;49.306;12.862;2023-08-30T02:26:07;7.13;;;4.57;;
12042;SDS011;6082;49.306;12.862;2023-08-30T02:28:33;7.57;;;5.13;;
12042;SDS011;6082;49.306;12.862;2023-08-30T02:30:59;6.43;;;4.80;;
12042;SDS011;6082;49.306;12.862;2023-08-30T02:33:25;5.30;;;4.07;;
12042;SDS011;6082;49.306;12.862;2023-08-30T02:35:50;6.77;;;4.67;;
12042;SDS011;6082;49.306;12.862;2023-08-30T02:38:18;6.70;;;4.77;;
12042;SDS011;6082;49.306;12.862;2023-08-30T02:40:44;6.37;;;4.43;;
12042;SDS011;6082;49.306;12.862;2023-08-30T02:43:10;7.37;;;4.43;;
12042;SDS011;6082;49.306;12.862;2023-08-30T02:45:36;6.40;;;4.97;;
12042;SDS011;6082;49.306;12.862;2023-08-30T02:48:01;6.27;;;4.80;;
12042;SDS011;6082;49.306;12.862;2023-08-30T02:50:27;6.50;;;4.77;;
12042;SDS011;6082;49.306;12.862;2023-08-30T02:52:53;7.43;;;4.43;;
12042;SDS011;6082;49.306;12.862;2023-08-30T02:55:19;9.60;;;4.97;;
12042;SDS011;6082;49.306;12.862;2023-08-30T02:57:44;6.63;;;4.80;;
12042;SDS011;6082;49.306;12.862;2023-08-30T03:00:11;6.30;;;4.60;;
12042;SDS011;6082;49.306;12.862;2023-08-30T03:02:37;6.93;;;4.77;;
12042;SDS011;6082;49.306;12.862;2023-08-30T03:05:03;9.20;;;5.10;;
12042;SDS011;6082;49.306;12.862;2023-08-30T03:07:29;6.43;;;4.73;;
12042;SDS011;6082;49.306;12.862;2023-08-30T03:09:56;7.80;;;5.17;;
12042;SDS011;6082;49.306;12.862;2023-08-30T03:12:22;8.97;;;5.30;;
12042;SDS011;6082;49.306;12.862;2023-08-30T03:14:48;7.87;;;5.13;;
12042;SDS011;6082;49.306;12.862;2023-08-30T03:17:13;7.43;;;5.17;;
12042;SDS011;6082;49.306;12.862;2023-08-30T03:19:39;8.00;;;5.00;;
12042;SDS011;6082;49.306;12.862;2023-08-30T03:22:05;6.83;;;4.93;;
12042;SDS011;6082;49.306;12.862;2023-08-30T03:24:31;8.67;;;5.70;;
12042;SDS011;6082;49.306;12.862;2023-08-30T03:26:56;7.23;;;5.33;;
12042;SDS011;6082;49.306;12.862;2023-08-30T03:29:22;7.20;;;5.53;;
12042;SDS011;6082;49.306;12.862;2023-08-30T03:31:48;8.40;;;5.47;;
12042;SDS011;6082;49.306;12.862;2023-08-30T03:34:14;8.07;;;5.73;;
12042;SDS011;6082;49.306;12.862;2023-08-30T03:36:40;6.87;;;4.93;;
12042;SDS011;6082;49.306;12.862;2023-08-30T03:39:08;7.80;;;5.40;;
12042;SDS011;6082;49.306;12.862;2023-08-30T03:41:33;6.83;;;5.20;;
12042;SDS011;6082;49.306;12.862;2023-08-30T03:43:59;7.80;;;5.30;;
12042;SDS011;6082;49.306;12.862;2023-08-30T03:46:25;7.00;;;5.33;;
12042;SDS011;6082;49.306;12.862;2023-08-30T03:48:50;7.00;;;4.87;;
12042;SDS011;6082;49.306;12.862;2023-08-30T03:51:17;8.83;;;6.03;;
12042;SDS011;6082;49.306;12.862;2023-08-30T03:53:43;8.10;;;5.70;;
12042;SDS011;6082;49.306;12.862;2023-08-30T03:56:10;7.23;;;5.27;;
12042;SDS011;6082;49.306;12.862;2023-08-30T03:58:35;7.30;;;5.57;;
12042;SDS011;6082;49.306;12.862;2023-08-30T04:01:02;6.83;;;5.30;;
12042;SDS011;6082;49.306;12.862;2023-08-30T04:03:28;11.37;;;5.60;;
12042;SDS011;6082;49.306;12.862;2023-08-30T04:05:54;7.50;;;4.87;;
12042;SDS011;6082;49.306;12.862;2023-08-30T04:08:21;9.63;;;5.47;;
12042;SDS011;6082;49.306;12.862;2023-08-30T04:10:47;6.87;;;5.07;;
12042;SDS011;6082;49.306;12.862;2023-08-30T04:13:14;5.67;;;4.67;;
12042;SDS011;6082;49.306;12.862;2023-08-30T04:15:40;7.77;;;5.87;;
12042;SDS011;6082;49.306;12.862;2023-08-30T04:18:06;7.57;;;5.60;;
12042;SDS011;6082;49.306;12.862;2023-08-30T04:20:32;7.50;;;5.70;;
12042;SDS011;6082;49.306;12.862;2023-08-30T04:22:59;8.70;;;5.43;;
12042;SDS011;6082;49.306;12.862;2023-08-30T04:25:31;9.40;;;5.30;;
12042;SDS011;6082;49.306;12.862;2023-08-30T04:27:59;9.80;;;6.17;;
12042;SDS011;6082;49.306;12.862;2023-08-30T04:30:25;7.57;;;5.00;;
12042;SDS011;6082;49.306;12.862;2023-08-30T04:32:51;10.10;;;5.13;;
12042;SDS011;6082;49.306;12.862;2023-08-30T04:35:16;7.23;;;5.63;;
12042;SDS011;6082;49.306;12.862;2023-08-30T04:37:43;7.10;;;5.67;;
12042;SDS011;6082;49.306;12.862;2023-08-30T04:40:09;8.13;;;5.43;;
12042;SDS011;6082;49.306;12.862;2023-08-30T04:42:35;6.93;;;5.10;;
12042;SDS011;6082;49.306;12.862;2023-08-30T04:45:02;9.03;;;6.07;;
12042;SDS011;6082;49.306;12.862;2023-08-30T04:47:29;6.40;;;5.20;;
12042;SDS011;6082;49.306;12.862;2023-08-30T04:49:55;7.40;;;5.27;;
12042;SDS011;6082;49.306;12.862;2023-08-30T04:52:21;8.00;;;4.90;;
12042;SDS011;6082;49.306;12.862;2023-08-30T04:54:47;7.43;;;5.33;;
12042;SDS011;6082;49.306;12.862;2023-08-30T04:57:14;9.87;;;6.17;;
12042;SDS011;6082;49.306;12.862;2023-08-30T04:59:41;7.17;;;5.53;;
12042;SDS011;6082;49.306;12.862;2023-08-30T05:02:07;7.50;;;5.40;;
12042;SDS011;6082;49.306;12.862;2023-08-30T05:04:33;7.43;;;5.13;;
12042;SDS011;6082;49.306;12.862;2023-08-30T05:06:58;8.23;;;5.27;;
12042;SDS011;6082;49.306;12.862;2023-08-30T05:09:25;10.07;;;4.97;;
12042;SDS011;6082;49.306;12.862;2023-08-30T05:11:51;8.10;;;5.03;;
12042;SDS011;6082;49.306;12.862;2023-08-30T05:14:17;6.90;;;5.37;;
12042;SDS011;6082;49.306;12.862;2023-08-30T05:16:43;8.67;;;5.50;;
12042;SDS011;6082;49.306;12.862;2023-08-30T05:19:08;8.70;;;6.20;;
12042;SDS011;6082;49.306;12.862;2023-08-30T05:21:34;7.80;;;5.73;;
12042;SDS011;6082;49.306;12.862;2023-08-30T05:24:01;8.30;;;6.13;;
12042;SDS011;6082;49.306;12.862;2023-08-30T05:26:27;7.37;;;5.17;;
12042;SDS011;6082;49.306;12.862;2023-08-30T05:28:53;10.87;;;6.00;;
12042;SDS011;6082;49.306;12.862;2023-08-30T05:31:19;6.43;;;5.30;;
12042;SDS011;6082;49.306;12.862;2023-08-30T05:33:44;8.17;;;5.70;;
12042;SDS011;6082;49.306;12.862;2023-08-30T05:36:10;9.53;;;6.20;;
12042;SDS011;6082;49.306;12.862;2023-08-30T05:38:36;7.27;;;5.23;;
12042;SDS011;6082;49.306;12.862;2023-08-30T05:41:01;8.80;;;5.70;;
12042;SDS011;6082;49.306;12.862;2023-08-30T05:43:27;7.87;;;5.67;;
12042;SDS011;6082;49.306;12.862;2023-08-30T05:45:53;7.10;;;5.17;;
12042;SDS011;6082;49.306;12.862;2023-08-30T05:48:19;8.83;;;5.87;;
12042;SDS011;6082;49.306;12.862;2023-08-30T05:50:44;8.23;;;5.50;;
12042;SDS011;6082;49.306;12.862;2023-08-30T05:53:10;9.40;;;6.23;;
12042;SDS011;6082;49.306;12.862;2023-08-30T05:55:36;8.83;;;6.30;;
12042;SDS011;6082;49.306;12.862;2023-08-30T05:58:02;10.90;;;6.30;;
12042;SDS011;6082;49.306;12.862;2023-08-30T06:00:28;9.37;;;6.07;;
12042;SDS011;6082;49.306;12.862;2023-08-30T06:02:54;9.70;;;6.60;;
12042;SDS011;6082;49.306;12.862;2023-08-30T06:05:20;10.40;;;6.63;;
12042;SDS011;6082;49.306;12.862;2023-08-30T06:07:45;8.83;;;6.63;;
12042;SDS011;6082;49.306;12.862;2023-08-30T06:10:11;9.17;;;5.87;;
12042;SDS011;6082;49.306;12.862;2023-08-30T06:12:37;10.37;;;6.87;;
12042;SDS011;6082;49.306;12.862;2023-08-30T06:15:03;7.90;;;6.13;;
12042;SDS011;6082;49.306;12.862;2023-08-30T06:17:29;10.33;;;7.10;;
12042;SDS011;6082;49.306;12.862;2023-08-30T06:19:55;8.73;;;6.30;;
12042;SDS011;6082;49.306;12.862;2023-08-30T06:22:21;10.00;;;6.60;;
12042;SDS011;6082;49.306;12.862;2023-08-30T06:24:46;14.30;;;7.83;;
12042;SDS011;6082;49.306;12.862;2023-08-30T06:27:12;10.13;;;7.30;;
12042;SDS011;6082;49.306;12.862;2023-08-30T06:29:41;9.40;;;6.73;;
12042;SDS011;6082;49.306;12.862;2023-08-30T06:32:06;9.33;;;6.67;;
12042;SDS011;6082;49.306;12.862;2023-08-30T06:34:32;7.87;;;6.07;;
12042;SDS011;6082;49.306;12.862;2023-08-30T06:36:58;11.50;;;7.10;;
12042;SDS011;6082;49.306;12.862;2023-08-30T06:39:24;11.43;;;7.30;;
12042;SDS011;6082;49.306;12.862;2023-08-30T06:41:49;13.00;;;7.53;;
12042;SDS011;6082;49.306;12.862;2023-08-30T06:44:15;11.67;;;7.77;;
12042;SDS011;6082;49.306;12.862;2023-08-30T06:46:42;11.73;;;7.60;;
12042;SDS011;6082;49.306;12.862;2023-08-30T06:49:08;13.90;;;8.00;;
12042;SDS011;6082;49.306;12.862;2023-08-30T06:51:34;10.37;;;7.03;;
12042;SDS011;6082;49.306;12.862;2023-08-30T06:54:00;9.13;;;6.50;;
12042;SDS011;6082;49.306;12.862;2023-08-30T06:56:29;12.27;;;7.40;;
12042;SDS011;6082;49.306;12.862;2023-08-30T06:58:54;9.77;;;6.77;;
12042;SDS011;6082;49.306;12.862;2023-08-30T07:01:20;10.60;;;6.67;;
12042;SDS011;6082;49.306;12.862;2023-08-30T07:03:46;10.80;;;7.07;;
12042;SDS011;6082;49.306;12.862;2023-08-30T07:06:11;11.37;;;6.83;;
12042;SDS011;6082;49.306;12.862;2023-08-30T07:08:37;12.87;;;7.30;;
12042;SDS011;6082;49.306;12.862;2023-08-30T07:11:03;10.00;;;6.77;;
12042;SDS011;6082;49.306;12.862;2023-08-30T07:13:29;10.13;;;6.73;;
12042;SDS011;6082;49.306;12.862;2023-08-30T07:15:54;10.13;;;6.50;;
12042;SDS011;6082;49.306;12.862;2023-08-30T07:18:20;10.33;;;6.87;;
12042;SDS011;6082;49.306;12.862;2023-08-30T07:20:46;8.37;;;5.87;;
12042;SDS011;6082;49.306;12.862;2023-08-30T07:23:11;10.17;;;6.40;;
12042;SDS011;6082;49.306;12.862;2023-08-30T07:25:37;9.50;;;6.63;;
12042;SDS011;6082;49.306;12.862;2023-08-30T07:28:04;9.20;;;6.33;;
12042;SDS011;6082;49.306;12.862;2023-08-30T07:30:30;10.30;;;6.57;;
12042;SDS011;6082;49.306;12.862;2023-08-30T07:32:56;11.83;;;6.90;;
12042;SDS011;6082;49.306;12.862;2023-08-30T07:35:21;10.50;;;6.67;;
12042;SDS011;6082;49.306;12.862;2023-08-30T07:37:48;9.23;;;6.63;;
12042;SDS011;6082;49.306;12.862;2023-08-30T07:40:13;8.90;;;6.47;;
12042;SDS011;6082;49.306;12.862;2023-08-30T07:42:39;9.73;;;7.40;;
12042;SDS011;6082;49.306;12.862;2023-08-30T07:45:05;11.23;;;7.87;;
12042;SDS011;6082;49.306;12.862;2023-08-30T07:47:31;10.73;;;7.67;;
12042;SDS011;6082;49.306;12.862;2023-08-30T07:49:57;11.97;;;7.30;;
12042;SDS011;6082;49.306;12.862;2023-08-30T07:52:22;15.13;;;8.00;;
12042;SDS011;6082;49.306;12.862;2023-08-30T07:54:48;12.03;;;8.97;;
12042;SDS011;6082;49.306;12.862;2023-08-30T07:57:14;12.70;;;9.00;;
12042;SDS011;6082;49.306;12.862;2023-08-30T07:59:39;15.03;;;8.73;;
12042;SDS011;6082;49.306;12.862;2023-08-30T08:02:06;15.20;;;9.73;;
12042;SDS011;6082;49.306;12.862;2023-08-30T08:04:33;13.37;;;9.50;;
12042;SDS011;6082;49.306;12.862;2023-08-30T08:06:59;11.50;;;7.93;;
12042;SDS011;6082;49.306;12.862;2023-08-30T08:09:25;14.10;;;7.83;;
12042;SDS011;6082;49.306;12.862;2023-08-30T08:11:51;9.80;;;7.47;;
12042;SDS011;6082;49.306;12.862;2023-08-30T08:14:17;11.80;;;8.90;;
12042;SDS011;6082;49.306;12.862;2023-08-30T08:16:43;10.33;;;8.03;;
12042;SDS011;6082;49.306;12.862;2023-08-30T08:19:08;14.33;;;7.97;;
12042;SDS011;6082;49.306;12.862;2023-08-30T08:21:34;9.57;;;6.07;;
12042;SDS011;6082;49.306;12.862;2023-08-30T08:24:00;8.47;;;6.63;;
12042;SDS011;6082;49.306;12.862;2023-08-30T08:26:26;9.50;;;6.77;;
12042;SDS011;6082;49.306;12.862;2023-08-30T08:28:53;8.73;;;6.43;;
12042;SDS011;6082;49.306;12.862;2023-08-30T08:31:20;10.20;;;6.40;;
12042;SDS011;6082;49.306;12.862;2023-08-30T08:33:45;10.07;;;6.43;;
12042;SDS011;6082;49.306;12.862;2023-08-30T08:36:11;8.03;;;6.10;;
12042;SDS011;6082;49.306;12.862;2023-08-30T08:38:37;8.53;;;5.90;;
12042;SDS011;6082;49.306;12.862;2023-08-30T08:41:07;7.53;;;5.90;;
12042;SDS011;6082;49.306;12.862;2023-08-30T08:43:37;6.57;;;4.73;;
12042;SDS011;6082;49.306;12.862;2023-08-30T08:46:04;7.43;;;5.00;;
12042;SDS011;6082;49.306;12.862;2023-08-30T08:48:33;6.97;;;5.47;;
12042;SDS011;6082;49.306;12.862;2023-08-30T08:51:06;7.07;;;5.40;;
12042;SDS011;6082;49.306;12.862;2023-08-30T08:53:32;6.43;;;5.47;;
12042;SDS011;6082;49.306;12.862;2023-08-30T08:55:58;6.10;;;5.03;;
12042;SDS011;6082;49.306;12.862;2023-08-30T08:58:26;5.83;;;5.07;;
12042;SDS011;6082;49.306;12.862;2023-08-30T09:00:53;6.90;;;4.97;;
12042;SDS011;6082;49.306;12.862;2023-08-30T09:03:19;5.93;;;4.70;;
12042;SDS011;6082;49.306;12.862;2023-08-30T09:05:46;5.97;;;4.83;;
12042;SDS011;6082;49.306;12.862;2023-08-30T09:08:14;5.63;;;4.50;;
12042;SDS011;6082;49.306;12.862;2023-08-30T09:10:41;5.40;;;4.53;;
12042;SDS011;6082;49.306;12.862;2023-08-30T09:13:08;6.20;;;5.27;;
12042;SDS011;6082;49.306;12.862;2023-08-30T09:15:34;6.97;;;4.87;;
12042;SDS011;6082;49.306;12.862;2023-08-30T09:18:02;7.13;;;5.10;;
12042;SDS011;6082;49.306;12.862;2023-08-30T09:20:28;5.83;;;4.83;;
12042;SDS011;6082;49.306;12.862;2023-08-30T09:22:54;5.13;;;4.40;;
12042;SDS011;6082;49.306;12.862;2023-08-30T09:25:23;6.57;;;4.20;;
12042;SDS011;6082;49.306;12.862;2023-08-30T09:27:50;4.73;;;4.00;;
12042;SDS011;6082;49.306;12.862;2023-08-30T09:30:25;4.87;;;4.10;;
12042;SDS011;6082;49.306;12.862;2023-08-30T09:32:52;4.30;;;3.77;;
12042;SDS011;6082;49.306;12.862;2023-08-30T09:35:17;4.83;;;3.90;;
12042;SDS011;6082;49.306;12.862;2023-08-30T09:37:46;4.83;;;3.93;;
12042;SDS011;6082;49.306;12.862;2023-08-30T09:40:17;4.30;;;3.70;;
12042;SDS011;6082;49.306;12.862;2023-08-30T09:42:43;4.60;;;4.07;;
12042;SDS011;6082;49.306;12.862;2023-08-30T09:45:19;4.73;;;3.73;;
12042;SDS011;6082;49.306;12.862;2023-08-30T09:47:47;6.30;;;3.73;;
12042;SDS011;6082;49.306;12.862;2023-08-30T09:50:18;4.60;;;3.47;;
12042;SDS011;6082;49.306;12.862;2023-08-30T09:52:47;4.83;;;3.83;;
12042;SDS011;6082;49.306;12.862;2023-08-30T09:55:18;4.53;;;3.70;;
12042;SDS011;6082;49.306;12.862;2023-08-30T09:57:44;4.00;;;3.30;;
12042;SDS011;6082;49.306;12.862;2023-08-30T10:00:10;4.30;;;3.87;;
12042;SDS011;6082;49.306;12.862;2023-08-30T10:02:43;3.30;;;3.00;;
12042;SDS011;6082;49.306;12.862;2023-08-30T10:05:12;3.83;;;3.30;;
12042;SDS011;6082;49.306;12.862;2023-08-30T10:07:38;3.50;;;3.20;;
12042;SDS011;6082;49.306;12.862;2023-08-30T10:10:04;4.80;;;3.57;;
12042;SDS011;6082;49.306;12.862;2023-08-30T10:12:33;3.63;;;3.10;;
12042;SDS011;6082;49.306;12.862;2023-08-30T10:14:59;3.50;;;2.90;;
12042;SDS011;6082;49.306;12.862;2023-08-30T10:17:31;3.90;;;2.87;;
12042;SDS011;6082;49.306;12.862;2023-08-30T10:19:58;3.10;;;2.80;;
12042;SDS011;6082;49.306;12.862;2023-08-30T10:22:26;3.30;;;2.90;;
12042;SDS011;6082;49.306;12.862;2023-08-30T10:24:54;4.50;;;3.07;;
12042;SDS011;6082;49.306;12.862;2023-08-30T10:27:23;2.60;;;2.40;;
12042;SDS011;6082;49.306;12.862;2023-08-30T10:29:51;2.97;;;2.70;;
12042;SDS011;6082;49.306;12.862;2023-08-30T10:32:21;3.10;;;2.40;;
12042;SDS011;6082;49.306;12.862;2023-08-30T10:34:48;2.60;;;2.40;;
12042;SDS011;6082;49.306;12.862;2023-08-30T10:37:14;4.37;;;2.80;;
12042;SDS011;6082;49.306;12.862;2023-08-30T10:39:41;2.70;;;2.50;;
12042;SDS011;6082;49.306;12.862;2023-08-30T10:42:08;3.03;;;2.57;;
12042;SDS011;6082;49.306;12.862;2023-08-30T10:44:46;3.67;;;2.47;;
12042;SDS011;6082;49.306;12.862;2023-08-30T10:47:20;3.40;;;2.80;;
12042;SDS011;6082;49.306;12.862;2023-08-30T10:49:53;2.83;;;2.53;;
12042;SDS011;6082;49.306;12.862;2023-08-30T10:52:20;2.93;;;2.30;;
12042;SDS011;6082;49.306;12.862;2023-08-30T10:54:46;2.67;;;2.43;;
12042;SDS011;6082;49.306;12.862;2023-08-30T10:57:12;3.03;;;2.67;;
12042;SDS011;6082;49.306;12.862;2023-08-30T10:59:39;3.03;;;2.70;;
12042;SDS011;6082;49.306;12.862;2023-08-30T11:02:05;2.93;;;2.60;;
12042;SDS011;6082;49.306;12.862;2023-08-30T11:04:32;2.67;;;2.30;;
12042;SDS011;6082;49.306;12.862;2023-08-30T11:06:57;2.63;;;2.37;;
12042;SDS011;6082;49.306;12.862;2023-08-30T11:09:23;3.40;;;2.53;;
12042;SDS011;6082;49.306;12.862;2023-08-30T11:11:50;2.67;;;2.47;;
12042;SDS011;6082;49.306;12.862;2023-08-30T11:14:16;3.03;;;2.10;;
12042;SDS011;6082;49.306;12.862;2023-08-30T11:16:43;1.63;;;1.53;;
12042;SDS011;6082;49.306;12.862;2023-08-30T11:19:10;2.70;;;1.90;;
12042;SDS011;6082;49.306;12.862;2023-08-30T11:21:37;2.23;;;1.70;;
12042;SDS011;6082;49.306;12.862;2023-08-30T11:24:05;2.37;;;1.93;;
12042;SDS011;6082;49.306;12.862;2023-08-30T11:26:31;2.20;;;2.00;;
12042;SDS011;6082;49.306;12.862;2023-08-30T11:28:57;2.40;;;2.20;;
12042;SDS011;6082;49.306;12.862;2023-08-30T11:31:28;2.40;;;2.20;;
12042;SDS011;6082;49.306;12.862;2023-08-30T11:33:55;2.00;;;1.80;;
12042;SDS011;6082;49.306;12.862;2023-08-30T11:36:23;2.40;;;1.93;;
12042;SDS011;6082;49.306;12.862;2023-08-30T11:38:51;2.53;;;1.87;;
12042;SDS011;6082;49.306;12.862;2023-08-30T11:41:19;2.15;;;1.95;;
12042;SDS011;6082;49.306;12.862;2023-08-30T11:43:49;1.97;;;1.80;;
12042;SDS011;6082;49.306;12.862;2023-08-30T11:46:18;2.00;;;1.90;;
12042;SDS011;6082;49.306;12.862;2023-08-30T11:48:45;1.90;;;1.73;;
12042;SDS011;6082;49.306;12.862;2023-08-30T11:51:12;1.63;;;1.53;;
12042;SDS011;6082;49.306;12.862;2023-08-30T11:53:38;2.57;;;1.87;;
12042;SDS011;6082;49.306;12.862;2023-08-30T11:56:05;1.57;;;1.47;;
12042;SDS011;6082;49.306;12.862;2023-08-30T11:58:32;2.23;;;1.80;;
12042;SDS011;6082;49.306;12.862;2023-08-30T12:00:59;1.53;;;1.43;;
12042;SDS011;6082;49.306;12.862;2023-08-30T12:03:29;1.33;;;1.23;;
12042;SDS011;6082;49.306;12.862;2023-08-30T12:05:56;1.90;;;1.70;;
12042;SDS011;6082;49.306;12.862;2023-08-30T12:08:23;1.90;;;1.50;;
12042;SDS011;6082;49.306;12.862;2023-08-30T12:10:50;1.90;;;1.40;;
12042;SDS011;6082;49.306;12.862;2023-08-30T12:13:20;1.37;;;1.20;;
12042;SDS011;6082;49.306;12.862;2023-08-30T12:15:49;1.50;;;1.40;;
12042;SDS011;6082;49.306;12.862;2023-08-30T12:18:22;1.57;;;1.47;;
12042;SDS011;6082;49.306;12.862;2023-08-30T12:20:55;1.40;;;1.30;;
12042;SDS011;6082;49.306;12.862;2023-08-30T12:23:22;2.53;;;1.50;;
12042;SDS011;6082;49.306;12.862;2023-08-30T12:26:01;2.57;;;1.80;;
12042;SDS011;6082;49.306;12.862;2023-08-30T12:28:42;2.20;;;1.53;;
12042;SDS011;6082;49.306;12.862;2023-08-30T12:31:10;1.70;;;1.60;;
12042;SDS011;6082;49.306;12.862;2023-08-30T12:33:37;1.70;;;1.60;;
12042;SDS011;6082;49.306;12.862;2023-08-30T12:36:03;1.80;;;1.60;;
12042;SDS011;6082;49.306;12.862;2023-08-30T12:38:29;1.63;;;1.53;;
12042;SDS011;6082;49.306;12.862;2023-08-30T12:40:55;2.20;;;1.70;;
12042;SDS011;6082;49.306;12.862;2023-08-30T12:43:22;2.43;;;1.73;;
12042;SDS011;6082;49.306;12.862;2023-08-30T12:45:48;2.20;;;1.50;;
12042;SDS011;6082;49.306;12.862;2023-08-30T12:48:15;1.60;;;1.50;;
12042;SDS011;6082;49.306;12.862;2023-08-30T12:50:43;1.73;;;1.63;;
12042;SDS011;6082;49.306;12.862;2023-08-30T12:53:10;2.17;;;1.73;;
12042;SDS011;6082;49.306;12.862;2023-08-30T12:55:36;2.00;;;1.70;;
12042;SDS011;6082;49.306;12.862;2023-08-30T12:58:05;2.40;;;2.13;;
12042;SDS011;6082;49.306;12.862;2023-08-30T13:00:32;2.40;;;1.93;;
12042;SDS011;6082;49.306;12.862;2023-08-30T13:02:58;2.10;;;1.93;;
12042;SDS011;6082;49.306;12.862;2023-08-30T13:05:24;2.17;;;1.90;;
12042;SDS011;6082;49.306;12.862;2023-08-30T13:07:50;3.23;;;1.87;;
12042;SDS011;6082;49.306;12.862;2023-08-30T13:10:16;1.80;;;1.70;;
12042;SDS011;6082;49.306;12.862;2023-08-30T13:12:42;2.53;;;1.87;;
12042;SDS011;6082;49.306;12.862;2023-08-30T13:15:09;2.60;;;1.90;;
12042;SDS011;6082;49.306;12.862;2023-08-30T13:17:35;1.67;;;1.57;;
12042;SDS011;6082;49.306;12.862;2023-08-30T13:20:01;2.07;;;1.57;;
12042;SDS011;6082;49.306;12.862;2023-08-30T13:22:28;1.73;;;1.57;;
12042;SDS011;6082;49.306;12.862;2023-08-30T13:24:54;1.80;;;1.70;;
12042;SDS011;6082;49.306;12.862;2023-08-30T13:27:19;3.03;;;1.80;;
12042;SDS011;6082;49.306;12.862;2023-08-30T13:29:45;2.33;;;1.80;;
12042;SDS011;6082;49.306;12.862;2023-08-30T13:32:11;3.07;;;2.00;;
12042;SDS011;6082;49.306;12.862;2023-08-30T13:34:37;2.50;;;2.00;;
12042;SDS011;6082;49.306;12.862;2023-08-30T13:37:10;2.80;;;1.50;;
12042;SDS011;6082;49.306;12.862;2023-08-30T13:39:37;2.10;;;1.53;;
12042;SDS011;6082;49.306;12.862;2023-08-30T13:42:02;3.30;;;1.60;;
12042;SDS011;6082;49.306;12.862;2023-08-30T13:44:28;1.80;;;1.40;;
12042;SDS011;6082;49.306;12.862;2023-08-30T13:46:54;2.37;;;1.50;;
12042;SDS011;6082;49.306;12.862;2023-08-30T13:49:20;2.37;;;1.70;;
12042;SDS011;6082;49.306;12.862;2023-08-30T13:51:45;2.93;;;2.10;;
12042;SDS011;6082;49.306;12.862;2023-08-30T13:54:11;5.93;;;2.00;;
12042;SDS011;6082;49.306;12.862;2023-08-30T13:56:37;2.50;;;2.10;;
12042;SDS011;6082;49.306;12.862;2023-08-30T13:59:06;2.30;;;1.77;;
12042;SDS011;6082;49.306;12.862;2023-08-30T14:01:32;3.93;;;2.17;;
12042;SDS011;6082;49.306;12.862;2023-08-30T14:04:00;5.90;;;2.20;;
12042;SDS011;6082;49.306;12.862;2023-08-30T14:06:26;2.60;;;2.30;;
12042;SDS011;6082;49.306;12.862;2023-08-30T14:08:51;2.90;;;2.10;;
12042;SDS011;6082;49.306;12.862;2023-08-30T14:11:17;2.17;;;1.60;;
12042;SDS011;6082;49.306;12.862;2023-08-30T14:13:43;2.90;;;1.80;;
12042;SDS011;6082;49.306;12.862;2023-08-30T14:16:09;2.10;;;1.90;;
12042;SDS011;6082;49.306;12.862;2023-08-30T14:18:35;2.57;;;1.93;;
12042;SDS011;6082;49.306;12.862;2023-08-30T14:21:01;2.90;;;1.80;;
12042;SDS011;6082;49.306;12.862;2023-08-30T14:23:27;3.73;;;2.00;;
12042;SDS011;6082;49.306;12.862;2023-08-30T14:28:28;1.73;;;1.53;;
12042;SDS011;6082;49.306;12.862;2023-08-30T14:30:54;2.13;;;1.70;;
12042;SDS011;6082;49.306;12.862;2023-08-30T14:33:20;2.93;;;1.47;;
12042;SDS011;6082;49.306;12.862;2023-08-30T14:35:46;3.60;;;1.70;;
12042;SDS011;6082;49.306;12.862;2023-08-30T14:38:12;5.47;;;1.70;;
12042;SDS011;6082;49.306;12.862;2023-08-30T14:40:37;1.67;;;1.57;;
12042;SDS011;6082;49.306;12.862;2023-08-30T14:43:03;1.80;;;1.60;;
12042;SDS011;6082;49.306;12.862;2023-08-30T14:45:30;1.73;;;1.40;;
12042;SDS011;6082;49.306;12.862;2023-08-30T14:47:56;2.87;;;1.60;;
12042;SDS011;6082;49.306;12.862;2023-08-30T14:50:21;2.27;;;1.57;;